createdAt,value
2022-12-15T00:02:36.545Z,24.30
2022-12-15T00:05:21.700Z,23.58
2022-12-15T00:08:07.220Z,24.75
2022-12-15T00:10:52.567Z,21.40
2022-12-15T00:13:37.787Z,22.77
2022-12-15T00:16:23.868Z,25.98
2022-12-15T00:19:10.163Z,24.45
2022-12-15T00:21:55.558Z,23.45
2022-12-15T00:24:40.892Z,22.08
2022-12-15T00:27:26.356Z,24.08
2022-12-15T00:30:11.666Z,23.98
2022-12-15T00:32:56.966Z,22.48
2022-12-15T00:35:43.656Z,20.38
2022-12-15T00:38:31.026Z,23.48
2022-12-15T00:40:59.952Z,22.15
2022-12-15T00:43:28.163Z,29.33
2022-12-15T00:46:14.091Z,26.02
2022-12-15T00:48:42.062Z,24.80
2022-12-15T00:51:10.595Z,24.27
2022-12-15T00:53:56.157Z,26.15
2022-12-15T00:56:41.290Z,24.45
2022-12-15T00:59:26.636Z,23.92
2022-12-15T01:02:12.139Z,22.52
2022-12-15T01:04:57.795Z,23.00
2022-12-15T01:07:45.055Z,22.30
2022-12-15T01:10:36.241Z,20.55
2022-12-15T01:13:22.181Z,23.88
2022-12-15T01:16:07.662Z,24.55
2022-12-15T01:18:52.780Z,24.23
2022-12-15T01:21:24.757Z,19.70
2022-12-15T01:23:54.664Z,23.10
2022-12-15T01:26:22.314Z,24.35
2022-12-15T01:28:49.834Z,26.08
2022-12-15T01:31:17.525Z,26.88
2022-12-15T01:33:45.063Z,21.77
2022-12-15T01:36:12.788Z,27.38
2022-12-15T01:38:40.433Z,23.35
2022-12-15T01:41:11.033Z,24.67
2022-12-15T01:43:41.181Z,22.98
2022-12-15T01:46:10.995Z,23.63
2022-12-15T01:48:49.988Z,23.05
2022-12-15T01:51:24.608Z,20.65
2022-12-15T01:53:58.319Z,21.92
2022-12-15T01:56:31.215Z,23.00
2022-12-15T01:59:04.007Z,22.83
2022-12-15T02:01:32.037Z,21.90
2022-12-15T02:03:59.807Z,20.10
2022-12-15T02:06:29.057Z,23.40
2022-12-15T02:08:59.886Z,21.92
2022-12-15T02:11:53.317Z,22.77
2022-12-15T02:14:32.499Z,22.27
2022-12-15T02:17:13.475Z,22.88
2022-12-15T02:20:08.695Z,22.48
2022-12-15T02:22:51.755Z,19.67
2022-12-15T02:25:33.112Z,23.50
2022-12-15T02:28:07.386Z,19.65
2022-12-15T02:30:46.502Z,20.77
2022-12-15T02:33:21.015Z,20.90
2022-12-15T02:35:57.204Z,19.85
2022-12-15T02:38:33.284Z,22.63
2022-12-15T02:41:01.932Z,24.38
2022-12-15T02:43:31.624Z,23.45
2022-12-15T02:46:17.075Z,24.35
2022-12-15T02:48:55.879Z,20.90
2022-12-15T02:51:35.327Z,23.45
2022-12-15T02:54:34.092Z,22.52
2022-12-15T02:57:06.443Z,23.92
2022-12-15T02:59:41.220Z,23.03
2022-12-15T03:02:10.986Z,25.55
2022-12-15T03:04:39.084Z,19.08
2022-12-15T03:07:10.405Z,22.85
2022-12-15T03:09:38.107Z,22.27
2022-12-15T03:12:06.136Z,21.77
2022-12-15T03:14:34.056Z,23.90
2022-12-15T03:17:01.685Z,24.92
2022-12-15T03:19:30.748Z,26.67
2022-12-15T03:21:58.356Z,22.88
2022-12-15T03:24:25.911Z,24.55
2022-12-15T03:26:53.497Z,22.67
2022-12-15T03:29:21.132Z,23.20
2022-12-15T03:31:49.724Z,27.40
2022-12-15T03:34:18.017Z,24.58
2022-12-15T03:36:46.988Z,24.27
2022-12-15T03:39:14.661Z,26.48
2022-12-15T03:41:42.476Z,23.25
2022-12-15T03:44:10.148Z,29.55
2022-12-15T03:46:37.798Z,23.63
2022-12-15T03:49:05.671Z,22.05
2022-12-15T03:51:33.188Z,22.92
2022-12-15T03:54:02.075Z,23.58
2022-12-15T03:56:29.662Z,20.80
2022-12-15T03:58:57.419Z,24.95
2022-12-15T04:01:29.256Z,23.65
2022-12-15T04:04:00.950Z,22.38
2022-12-15T04:06:29.869Z,25.80
2022-12-15T04:08:57.539Z,23.98
2022-12-15T04:11:26.464Z,24.55
2022-12-15T04:13:54.097Z,21.80
2022-12-15T04:16:21.832Z,23.35
2022-12-15T04:19:10.832Z,23.00
2022-12-15T04:21:37.464Z,24.98
2022-12-15T04:24:23.405Z,21.45
2022-12-15T04:27:10.111Z,25.42
2022-12-15T04:29:55.338Z,23.80
2022-12-15T04:32:40.730Z,22.95
2022-12-15T04:35:26.584Z,26.75
2022-12-15T04:38:11.869Z,23.85
2022-12-15T04:40:57.313Z,23.98
2022-12-15T04:43:44.003Z,26.38
2022-12-15T04:46:29.407Z,23.83
2022-12-15T04:49:14.532Z,23.27
2022-12-15T04:51:59.912Z,26.20
2022-12-15T04:54:45.286Z,26.13
2022-12-15T04:57:30.330Z,28.88
2022-12-15T05:00:17.111Z,26.40
2022-12-15T05:03:02.517Z,26.15
2022-12-15T05:05:47.746Z,24.08
2022-12-15T05:08:33.031Z,25.52
2022-12-15T05:11:18.425Z,26.23
2022-12-15T05:14:03.805Z,25.80
2022-12-15T05:16:50.570Z,25.50
2022-12-15T05:19:35.855Z,26.50
2022-12-15T05:22:21.178Z,23.10
2022-12-15T05:25:06.350Z,27.60
2022-12-15T05:27:51.700Z,27.55
2022-12-15T05:30:36.994Z,30.00
2022-12-15T05:33:06.193Z,26.60
2022-12-15T05:35:33.804Z,26.40
2022-12-15T05:38:01.377Z,26.27
2022-12-15T05:40:28.982Z,32.28
2022-12-15T05:42:59.154Z,31.30
2022-12-15T05:45:27.040Z,30.67
2022-12-15T05:47:55.324Z,33.05
2022-12-15T05:50:24.383Z,30.30
2022-12-15T05:52:52.002Z,28.50
2022-12-15T05:55:20.067Z,28.35
2022-12-15T05:57:52.464Z,27.75
2022-12-15T06:00:21.096Z,22.67
2022-12-15T06:02:49.983Z,28.20
2022-12-15T06:05:18.025Z,29.83
2022-12-15T06:07:46.954Z,28.02
2022-12-15T06:10:14.648Z,31.23
2022-12-15T06:12:42.165Z,30.45
2022-12-15T06:15:10.606Z,29.30
2022-12-15T06:17:38.166Z,29.40
2022-12-15T06:20:06.504Z,28.02
2022-12-15T06:22:34.406Z,27.83
2022-12-15T06:25:03.334Z,33.17
2022-12-15T06:27:30.863Z,30.35
2022-12-15T06:29:58.439Z,29.23
2022-12-15T06:32:25.950Z,29.45
2022-12-15T06:34:53.518Z,29.02
2022-12-15T06:37:21.084Z,29.25
2022-12-15T06:39:48.680Z,31.98
2022-12-15T06:42:17.648Z,30.15
2022-12-15T06:44:45.203Z,28.45
2022-12-15T06:47:12.874Z,30.83
2022-12-15T06:49:40.564Z,32.20
2022-12-15T06:52:09.015Z,31.98
2022-12-15T06:54:36.597Z,38.72
2022-12-15T06:57:04.344Z,66.70
2022-12-15T06:59:33.208Z,73.47
2022-12-15T07:02:01.499Z,52.58
2022-12-15T07:04:30.319Z,39.85
2022-12-15T07:06:57.984Z,34.05
2022-12-15T07:09:27.221Z,33.25
2022-12-15T07:11:54.806Z,32.15
2022-12-15T07:14:23.067Z,30.92
2022-12-15T07:16:52.004Z,29.77
2022-12-15T07:19:19.600Z,33.13
2022-12-15T07:21:47.295Z,29.05
2022-12-15T07:24:15.112Z,35.42
2022-12-15T07:26:43.193Z,32.35
2022-12-15T07:29:11.711Z,31.65
2022-12-15T07:31:39.517Z,30.27
2022-12-15T07:34:08.511Z,31.17
2022-12-15T07:36:36.050Z,32.65
2022-12-15T07:39:05.663Z,34.28
2022-12-15T07:41:33.478Z,30.05
2022-12-15T07:44:02.231Z,31.20
2022-12-15T07:46:29.955Z,30.85
2022-12-15T07:48:57.694Z,33.53
2022-12-15T07:51:27.557Z,32.10
2022-12-15T07:53:55.210Z,29.70
2022-12-15T07:56:22.790Z,35.92
2022-12-15T07:58:52.232Z,41.33
2022-12-15T08:01:20.029Z,32.08
2022-12-15T08:03:49.045Z,33.17
2022-12-15T08:06:17.218Z,32.55
2022-12-15T08:08:50.438Z,36.13
2022-12-15T08:11:20.702Z,34.30
2022-12-15T08:14:06.885Z,30.83
2022-12-15T08:16:36.713Z,34.05
2022-12-15T08:19:06.216Z,32.08
2022-12-15T08:21:34.588Z,31.92
2022-12-15T08:24:04.039Z,31.52
2022-12-15T08:26:31.850Z,36.70
2022-12-15T08:29:32.034Z,31.13
2022-12-15T08:31:51.410Z,33.25
2022-12-15T08:34:19.065Z,38.33
2022-12-15T08:36:46.643Z,29.38
2022-12-15T08:39:16.284Z,34.97
2022-12-15T08:41:43.878Z,30.95
2022-12-15T08:44:11.457Z,29.70
2022-12-15T08:46:39.796Z,33.45
2022-12-15T08:49:08.592Z,30.67
2022-12-15T08:51:36.152Z,29.40
2022-12-15T08:54:03.695Z,31.98
2022-12-15T08:56:32.592Z,29.40
2022-12-15T08:59:01.981Z,30.63
2022-12-15T09:01:32.182Z,28.77
2022-12-15T09:04:01.283Z,30.27
2022-12-15T09:06:31.089Z,27.88
2022-12-15T09:09:00.150Z,27.85
2022-12-15T09:11:28.561Z,28.42
2022-12-15T09:13:57.791Z,32.95
2022-12-15T09:16:25.945Z,28.60
2022-12-15T09:18:54.972Z,31.75
2022-12-15T09:21:25.996Z,31.90
2022-12-15T09:23:55.221Z,30.77
2022-12-15T09:26:24.247Z,32.20
2022-12-15T09:28:52.275Z,33.17
2022-12-15T09:31:23.227Z,29.38
2022-12-15T09:33:52.515Z,30.63
2022-12-15T09:36:20.631Z,28.42
2022-12-15T09:38:48.295Z,31.73
2022-12-15T09:41:23.092Z,30.17
2022-12-15T09:43:56.511Z,31.50
2022-12-15T09:46:35.716Z,31.08
2022-12-15T09:49:07.022Z,29.55
2022-12-15T09:51:40.103Z,32.33
2022-12-15T09:54:09.485Z,27.67
2022-12-15T09:56:43.431Z,28.40
2022-12-15T09:59:27.113Z,29.83
2022-12-15T10:02:15.215Z,27.92
2022-12-15T10:04:50.834Z,35.22
2022-12-15T10:07:27.950Z,31.48
2022-12-15T10:09:55.664Z,29.95
2022-12-15T10:12:29.908Z,28.75
2022-12-15T10:15:10.034Z,29.27
2022-12-15T10:17:47.042Z,31.17
2022-12-15T10:20:20.234Z,30.05
2022-12-15T10:22:50.502Z,34.08
2022-12-15T10:25:29.319Z,26.50
2022-12-15T10:28:18.967Z,31.85
2022-12-15T10:30:53.121Z,31.60
2022-12-15T10:33:24.866Z,28.05
2022-12-15T10:35:54.151Z,29.27
2022-12-15T10:38:27.066Z,26.05
2022-12-15T10:40:57.214Z,31.08
2022-12-15T10:43:29.128Z,30.05
2022-12-15T10:46:08.299Z,28.30
2022-12-15T10:48:37.926Z,28.60
2022-12-15T10:51:26.545Z,28.48
2022-12-15T10:53:55.868Z,29.13
2022-12-15T10:56:32.687Z,27.95
2022-12-15T10:59:03.918Z,28.65
2022-12-15T11:01:33.944Z,27.20
2022-12-15T11:04:03.141Z,36.55
2022-12-15T11:06:33.477Z,34.42
2022-12-15T11:09:09.949Z,33.55
2022-12-15T11:12:04.616Z,28.90
2022-12-15T11:14:44.749Z,29.55
2022-12-15T11:17:17.626Z,28.15
2022-12-15T11:19:55.256Z,30.40
2022-12-15T11:22:36.262Z,31.40
2022-12-15T11:25:14.671Z,28.05
2022-12-15T11:27:45.933Z,30.77
2022-12-15T11:30:15.919Z,27.52
2022-12-15T11:32:46.904Z,28.48
2022-12-15T11:35:23.664Z,26.15
2022-12-15T11:37:57.654Z,31.15
2022-12-15T11:40:36.222Z,28.23
2022-12-15T11:43:33.737Z,26.73
2022-12-15T11:46:21.361Z,27.95
2022-12-15T11:49:00.876Z,28.48
2022-12-15T11:51:38.113Z,29.90
2022-12-15T11:54:17.964Z,27.63
2022-12-15T11:56:51.568Z,32.28
2022-12-15T11:59:48.570Z,33.08
2022-12-15T12:02:35.075Z,35.17
2022-12-15T12:05:19.089Z,27.05
2022-12-15T12:07:51.472Z,29.25
2022-12-15T12:10:31.986Z,28.35
2022-12-15T12:13:12.911Z,30.50
2022-12-15T12:15:55.557Z,27.27
2022-12-15T12:18:27.044Z,31.20
2022-12-15T12:21:02.280Z,31.15
2022-12-15T12:23:37.798Z,29.20
2022-12-15T12:26:12.933Z,29.98
2022-12-15T12:28:46.768Z,30.33
2022-12-15T12:31:27.703Z,30.30
2022-12-15T12:33:59.301Z,28.85
2022-12-15T12:36:27.732Z,27.08
2022-12-15T12:38:59.063Z,31.17
2022-12-15T12:41:37.706Z,29.60
2022-12-15T12:44:12.203Z,29.52
2022-12-15T12:46:45.554Z,30.33
2022-12-15T12:49:26.426Z,29.92
2022-12-15T12:51:56.441Z,30.88
2022-12-15T12:54:50.289Z,28.77
2022-12-15T12:57:37.333Z,26.10
2022-12-15T13:00:22.310Z,27.65
2022-12-15T13:03:09.921Z,30.83
2022-12-15T13:05:39.099Z,29.85
2022-12-15T13:08:29.882Z,27.55
2022-12-15T13:11:38.215Z,25.08
2022-12-15T13:14:10.422Z,26.75
2022-12-15T13:17:01.364Z,28.23
2022-12-15T13:20:02.869Z,28.30
2022-12-15T13:22:33.931Z,27.95
2022-12-15T13:25:02.098Z,28.48
2022-12-15T13:27:38.236Z,27.33
2022-12-15T13:30:16.755Z,30.05
2022-12-15T13:32:46.488Z,25.48
2022-12-15T13:35:24.352Z,26.08
2022-12-15T13:37:55.726Z,25.77
2022-12-15T13:40:34.789Z,26.67
2022-12-15T13:43:38.104Z,26.35
2022-12-15T13:46:12.876Z,27.85
2022-12-15T13:48:43.607Z,26.88
2022-12-15T13:51:34.094Z,29.17
2022-12-15T13:54:05.803Z,26.15
2022-12-15T13:56:50.949Z,25.88
2022-12-15T13:59:30.419Z,27.17
2022-12-15T14:01:58.067Z,27.15
2022-12-15T14:04:27.698Z,26.00
2022-12-15T14:06:57.564Z,25.80
2022-12-15T14:09:30.395Z,25.23
2022-12-15T14:11:59.399Z,24.92
2022-12-15T14:14:31.372Z,28.25
2022-12-15T14:17:01.815Z,25.42
2022-12-15T14:19:38.873Z,26.58
2022-12-15T14:22:27.052Z,25.90
2022-12-15T14:25:01.191Z,27.60
2022-12-15T14:30:19.033Z,24.40
2022-12-15T14:32:50.521Z,28.42
2022-12-15T14:35:23.498Z,25.20
2022-12-15T14:37:51.293Z,25.92
2022-12-15T14:43:14.619Z,26.13
2022-12-15T14:45:43.586Z,24.55
2022-12-15T14:48:40.147Z,27.60
2022-12-15T14:51:01.518Z,25.55
2022-12-15T14:53:34.643Z,25.70
2022-12-15T14:56:14.604Z,25.35
2022-12-15T14:58:43.115Z,28.08
2022-12-15T15:01:25.820Z,27.20
2022-12-15T15:03:05.969Z,27.77
2022-12-15T15:04:01.044Z,27.90
2022-12-15T15:06:32.445Z,24.98
2022-12-15T15:09:12.531Z,27.23
2022-12-15T15:11:42.785Z,28.75
2022-12-15T15:14:14.827Z,26.38
2022-12-15T15:16:44.606Z,23.63
2022-12-15T15:19:20.871Z,30.55
2022-12-15T15:21:48.800Z,34.70
2022-12-15T15:24:26.198Z,33.13
2022-12-15T15:26:54.365Z,30.45
2022-12-15T15:29:41.324Z,26.77
2022-12-15T15:32:17.383Z,27.63
2022-12-15T15:34:46.961Z,26.00
2022-12-15T15:37:19.508Z,33.35
2022-12-15T15:39:49.422Z,29.65
2022-12-15T15:42:17.091Z,33.70
2022-12-15T15:44:44.874Z,34.70
2022-12-15T15:47:22.398Z,33.25
2022-12-15T15:49:50.442Z,30.98
2022-12-15T15:52:18.044Z,32.55
2022-12-15T15:54:46.471Z,29.63
2022-12-15T15:57:16.088Z,29.38
2022-12-15T15:59:44.156Z,28.73
2022-12-15T16:02:13.456Z,27.80
2022-12-15T16:04:43.359Z,28.50
2022-12-15T16:07:21.104Z,25.30
2022-12-15T16:09:49.257Z,29.02
2022-12-15T16:12:27.567Z,26.35
2022-12-15T16:14:55.868Z,27.02
2022-12-15T16:17:23.943Z,24.95
2022-12-15T16:19:52.815Z,27.45
2022-12-15T16:22:22.374Z,24.23
2022-12-15T16:24:49.925Z,24.83
2022-12-15T16:27:17.632Z,23.77
2022-12-15T16:29:45.413Z,28.73
2022-12-15T16:32:13.249Z,26.23
2022-12-15T16:34:41.891Z,25.80
2022-12-15T16:37:25.009Z,26.08
2022-12-15T16:39:52.917Z,28.88
2022-12-15T16:42:20.510Z,25.23
2022-12-15T16:44:48.086Z,23.83
2022-12-15T16:47:16.022Z,26.95
2022-12-15T16:49:43.629Z,24.10
2022-12-15T16:52:19.307Z,25.67
2022-12-15T16:54:48.987Z,27.55
2022-12-15T16:57:16.861Z,27.58
2022-12-15T16:59:44.447Z,26.35
2022-12-15T17:02:26.952Z,27.63
2022-12-15T17:04:55.824Z,26.80
2022-12-15T17:07:27.522Z,26.83
2022-12-15T17:09:55.147Z,25.02
2022-12-15T17:12:22.980Z,25.50
2022-12-15T17:14:50.539Z,28.02
2022-12-15T17:17:19.844Z,30.17
2022-12-15T17:20:19.774Z,33.42
2022-12-15T17:22:38.888Z,29.40
2022-12-15T17:25:07.526Z,25.48
2022-12-15T17:27:35.098Z,27.45
2022-12-15T17:30:02.923Z,30.20
2022-12-15T17:32:31.452Z,29.40
2022-12-15T17:34:59.238Z,29.50
2022-12-15T17:37:33.469Z,28.50
2022-12-15T17:40:04.945Z,29.60
2022-12-15T17:42:33.230Z,32.58
2022-12-15T17:45:00.977Z,31.42
2022-12-15T17:47:30.305Z,33.55
2022-12-15T17:49:57.923Z,25.63
2022-12-15T17:52:30.015Z,24.98
2022-12-15T17:54:58.285Z,28.95
2022-12-15T17:57:29.910Z,29.52
2022-12-15T17:59:57.534Z,27.20
2022-12-15T18:02:25.279Z,29.17
2022-12-15T18:04:53.979Z,32.10
2022-12-15T18:07:23.501Z,29.02
2022-12-15T18:09:52.023Z,29.38
2022-12-15T18:12:21.705Z,29.20
2022-12-15T18:14:51.099Z,29.73
2022-12-15T18:17:18.878Z,29.65
2022-12-15T18:19:46.615Z,27.60
2022-12-15T18:22:16.454Z,29.88
2022-12-15T18:24:44.109Z,27.55
2022-12-15T18:27:23.175Z,27.90
2022-12-15T18:29:52.445Z,29.60
2022-12-15T18:32:22.326Z,29.92
2022-12-15T18:34:50.378Z,31.67
2022-12-15T18:37:18.999Z,35.00
2022-12-15T18:39:47.435Z,34.60
2022-12-15T18:42:16.380Z,29.13
2022-12-15T18:44:47.160Z,30.10
2022-12-15T18:47:18.365Z,30.13
2022-12-15T18:49:46.360Z,29.08
2022-12-15T18:52:17.562Z,28.42
2022-12-15T18:54:45.440Z,29.48
2022-12-15T18:57:26.027Z,26.40
2022-12-15T18:59:54.529Z,30.08
2022-12-15T19:02:23.572Z,26.40
2022-12-15T19:04:51.294Z,29.52
2022-12-15T19:07:18.905Z,30.75
2022-12-15T19:09:46.675Z,28.88
2022-12-15T19:12:21.226Z,29.88
2022-12-15T19:14:51.281Z,29.27
2022-12-15T19:17:38.206Z,28.17
2022-12-15T19:20:33.398Z,29.33
2022-12-15T19:23:01.019Z,30.65
2022-12-15T19:25:30.765Z,28.42
2022-12-15T19:28:00.145Z,28.67
2022-12-15T19:30:31.315Z,26.83
2022-12-15T19:32:58.899Z,33.45
2022-12-15T19:35:29.061Z,26.55
2022-12-15T19:37:59.133Z,27.73
2022-12-15T19:40:30.113Z,29.83
2022-12-15T19:42:58.297Z,33.78
2022-12-15T19:45:27.843Z,25.63
2022-12-15T19:47:56.037Z,31.02
2022-12-15T19:50:25.742Z,28.33
2022-12-15T19:52:57.962Z,28.63
2022-12-15T19:55:28.951Z,28.23
2022-12-15T19:57:56.756Z,26.33
2022-12-15T20:00:25.055Z,25.42
2022-12-15T20:02:54.640Z,27.65
2022-12-15T20:05:23.758Z,26.65
2022-12-15T20:07:54.617Z,24.20
2022-12-15T20:10:29.417Z,30.95
2022-12-15T20:12:59.913Z,30.63
2022-12-15T20:15:27.934Z,28.40
2022-12-15T20:17:56.546Z,28.58
2022-12-15T20:20:26.782Z,27.70
2022-12-15T20:22:57.502Z,28.90
2022-12-15T20:25:28.624Z,34.00
2022-12-15T20:27:57.354Z,27.73
2022-12-15T20:30:28.329Z,27.45
2022-12-15T20:32:56.999Z,28.38
2022-12-15T20:35:25.171Z,32.38
2022-12-15T20:37:53.155Z,30.83
2022-12-15T20:40:24.347Z,26.80
2022-12-15T20:42:53.201Z,28.15
2022-12-15T20:45:24.712Z,25.52
2022-12-15T20:47:54.646Z,25.00
2022-12-15T20:50:32.591Z,29.05
2022-12-15T20:53:00.282Z,33.33
2022-12-15T20:55:29.600Z,27.60
2022-12-15T20:57:57.204Z,25.88
2022-12-15T21:00:25.032Z,29.13
2022-12-15T21:02:55.208Z,27.30
2022-12-15T21:05:25.330Z,29.33
2022-12-15T21:07:53.330Z,26.70
2022-12-15T21:10:21.667Z,25.83
2022-12-15T21:12:51.444Z,25.92
2022-12-15T21:15:22.245Z,26.40
2022-12-15T21:18:08.853Z,25.88
2022-12-15T21:20:40.898Z,26.33
2022-12-15T21:23:20.698Z,24.58
2022-12-15T21:25:48.822Z,24.80
2022-12-15T21:28:18.091Z,23.75
2022-12-15T21:30:46.022Z,21.77
2022-12-15T21:33:13.817Z,28.85
2022-12-15T21:35:43.033Z,23.02
2022-12-15T21:38:26.447Z,19.92
2022-12-15T21:40:59.336Z,20.48
2022-12-15T21:45:59.043Z,20.75
2022-12-15T21:48:44.449Z,22.20
2022-12-15T21:51:16.823Z,26.30
2022-12-15T21:53:46.603Z,19.80
2022-12-15T21:56:18.467Z,22.80
2022-12-15T21:58:50.886Z,22.33
